sensor_id;sensor_type;location;lat;lon;timestamp;pressure;altitude;pressure_sealevel;temperature;humidity
10064;BME280;5071;52.360;13.134;2023-06-22T00:02:35;101374.34;;;18.33;98.94
10064;BME280;5071;52.360;13.134;2023-06-22T00:07:38;101378.06;;;18.29;98.47
10064;BME280;5071;52.360;13.134;2023-06-22T00:12:40;101388.09;;;18.23;99.69
10064;BME280;5071;52.360;13.134;2023-06-22T00:17:43;101390.88;;;18.20;99.76
10064;BME280;5071;52.360;13.134;2023-06-22T00:22:46;101398.09;;;18.18;99.24
10064;BME280;5071;52.360;13.134;2023-06-22T00:27:49;101401.75;;;18.17;99.79
10064;BME280;5071;52.360;13.134;2023-06-22T00:32:51;101399.75;;;18.22;99.93
10064;BME280;5071;52.360;13.134;2023-06-22T00:37:55;101395.09;;;18.27;99.66
10064;BME280;5071;52.360;13.134;2023-06-22T00:42:57;101393.97;;;18.35;99.56
10064;BME280;5071;52.360;13.134;2023-06-22T00:48:00;101409.06;;;18.39;99.08
10064;BME280;5071;52.360;13.134;2023-06-22T00:53:05;101406.19;;;18.45;98.61
10064;BME280;5071;52.360;13.134;2023-06-22T00:58:08;101409.78;;;18.44;97.83
10064;BME280;5071;52.360;13.134;2023-06-22T01:03:10;101416.28;;;18.37;98.15
10064;BME280;5071;52.360;13.134;2023-06-22T01:08:23;101420.03;;;18.33;98.92
10064;BME280;5071;52.360;13.134;2023-06-22T01:13:37;101415.38;;;18.38;98.84
10064;BME280;5071;52.360;13.134;2023-06-22T01:18:43;101410.09;;;18.35;98.85
10064;BME280;5071;52.360;13.134;2023-06-22T01:24:01;101417.56;;;18.26;99.09
10064;BME280;5071;52.360;13.134;2023-06-22T01:29:10;101418.47;;;18.25;99.33
10064;BME280;5071;52.360;13.134;2023-06-22T01:34:13;101421.97;;;18.27;99.02
10064;BME280;5071;52.360;13.134;2023-06-22T01:39:17;101420.84;;;18.35;98.90
10064;BME280;5071;52.360;13.134;2023-06-22T01:44:21;101415.25;;;18.41;99.48
10064;BME280;5071;52.360;13.134;2023-06-22T01:49:23;101427.69;;;18.45;98.98
10064;BME280;5071;52.360;13.134;2023-06-22T01:54:25;101426.00;;;18.41;99.32
10064;BME280;5071;52.360;13.134;2023-06-22T01:59:34;101439.66;;;18.35;99.06
10064;BME280;5071;52.360;13.134;2023-06-22T02:04:41;101444.78;;;18.42;98.57
10064;BME280;5071;52.360;13.134;2023-06-22T02:09:47;101431.19;;;18.47;97.91
10064;BME280;5071;52.360;13.134;2023-06-22T02:14:52;101437.53;;;18.44;98.48
10064;BME280;5071;52.360;13.134;2023-06-22T02:19:54;101444.25;;;18.58;97.42
10064;BME280;5071;52.360;13.134;2023-06-22T02:24:56;101439.09;;;18.77;96.33
10064;BME280;5071;52.360;13.134;2023-06-22T02:30:00;101444.81;;;18.94;95.60
10064;BME280;5071;52.360;13.134;2023-06-22T02:35:02;101438.34;;;19.00;95.00
10064;BME280;5071;52.360;13.134;2023-06-22T02:40:06;101442.59;;;19.06;94.98
10064;BME280;5071;52.360;13.134;2023-06-22T02:45:10;101445.06;;;19.12;94.23
10064;BME280;5071;52.360;13.134;2023-06-22T02:50:12;101435.69;;;18.98;94.35
10064;BME280;5071;52.360;13.134;2023-06-22T02:55:15;101441.69;;;18.81;95.52
10064;BME280;5071;52.360;13.134;2023-06-22T03:00:19;101442.97;;;18.70;96.10
10064;BME280;5071;52.360;13.134;2023-06-22T03:05:21;101436.84;;;18.64;96.61
10064;BME280;5071;52.360;13.134;2023-06-22T03:10:23;101419.78;;;18.65;97.57
10064;BME280;5071;52.360;13.134;2023-06-22T03:15:27;101433.06;;;18.70;97.02
10064;BME280;5071;52.360;13.134;2023-06-22T03:20:29;101444.47;;;18.77;97.47
10064;BME280;5071;52.360;13.134;2023-06-22T03:25:32;101445.25;;;18.82;96.57
10064;BME280;5071;52.360;13.134;2023-06-22T03:30:35;101447.50;;;18.94;96.77
10064;BME280;5071;52.360;13.134;2023-06-22T03:35:37;101441.31;;;18.92;96.65
10064;BME280;5071;52.360;13.134;2023-06-22T03:40:40;101445.31;;;19.06;96.54
10064;BME280;5071;52.360;13.134;2023-06-22T03:45:43;101453.19;;;19.10;96.39
10064;BME280;5071;52.360;13.134;2023-06-22T03:50:45;101462.66;;;19.22;96.50
10064;BME280;5071;52.360;13.134;2023-06-22T03:55:48;101457.91;;;19.29;95.19
10064;BME280;5071;52.360;13.134;2023-06-22T04:00:52;101459.38;;;19.37;95.32
10064;BME280;5071;52.360;13.134;2023-06-22T04:05:54;101467.03;;;19.48;95.28
10064;BME280;5071;52.360;13.134;2023-06-22T04:10:56;101463.53;;;19.70;93.82
10064;BME280;5071;52.360;13.134;2023-06-22T04:15:59;101468.22;;;19.88;92.58
10064;BME280;5071;52.360;13.134;2023-06-22T04:21:02;101477.38;;;20.06;92.34
10064;BME280;5071;52.360;13.134;2023-06-22T04:26:04;101493.91;;;20.65;90.66
10064;BME280;5071;52.360;13.134;2023-06-22T04:31:08;101494.16;;;21.80;85.74
10064;BME280;5071;52.360;13.134;2023-06-22T04:36:10;101498.16;;;23.00;78.39
10064;BME280;5071;52.360;13.134;2023-06-22T04:41:12;101504.47;;;23.51;74.72
10064;BME280;5071;52.360;13.134;2023-06-22T04:46:15;101505.59;;;23.47;74.46
10064;BME280;5071;52.360;13.134;2023-06-22T04:51:17;101493.69;;;22.64;77.82
10064;BME280;5071;52.360;13.134;2023-06-22T04:56:19;101496.59;;;22.42;79.07
10064;BME280;5071;52.360;13.134;2023-06-22T05:01:23;101492.72;;;22.65;77.36
10064;BME280;5071;52.360;13.134;2023-06-22T05:06:25;101498.78;;;22.87;77.21
10064;BME280;5071;52.360;13.134;2023-06-22T05:11:28;101497.34;;;22.80;77.43
10064;BME280;5071;52.360;13.134;2023-06-22T05:16:31;101497.19;;;23.52;73.17
10064;BME280;5071;52.360;13.134;2023-06-22T05:21:34;101499.47;;;23.77;72.98
10064;BME280;5071;52.360;13.134;2023-06-22T05:26:36;101499.81;;;24.50;69.76
10064;BME280;5071;52.360;13.134;2023-06-22T05:31:40;101501.75;;;25.53;65.09
10064;BME280;5071;52.360;13.134;2023-06-22T05:36:42;101499.59;;;25.30;65.40
10064;BME280;5071;52.360;13.134;2023-06-22T05:41:45;101514.59;;;26.22;62.77
10064;BME280;5071;52.360;13.134;2023-06-22T05:46:49;101510.97;;;25.79;61.85
10064;BME280;5071;52.360;13.134;2023-06-22T05:51:51;101514.06;;;25.45;63.56
10064;BME280;5071;52.360;13.134;2023-06-22T05:56:53;101516.28;;;26.37;58.73
10064;BME280;5071;52.360;13.134;2023-06-22T06:01:57;101506.28;;;27.18;56.67
10064;BME280;5071;52.360;13.134;2023-06-22T06:06:59;101503.34;;;26.13;58.50
10064;BME280;5071;52.360;13.134;2023-06-22T06:12:02;101516.19;;;27.06;55.28
10064;BME280;5071;52.360;13.134;2023-06-22T06:17:06;101518.63;;;26.43;55.76
10064;BME280;5071;52.360;13.134;2023-06-22T06:22:08;101521.31;;;25.30;59.50
10064;BME280;5071;52.360;13.134;2023-06-22T06:27:10;101529.09;;;24.61;62.34
10064;BME280;5071;52.360;13.134;2023-06-22T06:32:13;101514.09;;;25.14;60.98
10064;BME280;5071;52.360;13.134;2023-06-22T06:37:16;101519.03;;;25.38;59.13
10064;BME280;5071;52.360;13.134;2023-06-22T06:42:18;101509.50;;;26.57;57.41
10064;BME280;5071;52.360;13.134;2023-06-22T06:47:22;101494.56;;;27.43;53.44
10064;BME280;5071;52.360;13.134;2023-06-22T06:52:24;101503.50;;;27.58;50.08
10064;BME280;5071;52.360;13.134;2023-06-22T06:57:27;101490.94;;;29.13;47.73
10064;BME280;5071;52.360;13.134;2023-06-22T07:02:30;101487.06;;;29.62;46.16
10064;BME280;5071;52.360;13.134;2023-06-22T07:07:33;101480.28;;;29.10;46.55
10064;BME280;5071;52.360;13.134;2023-06-22T07:12:38;101479.56;;;27.74;50.34
10064;BME280;5071;52.360;13.134;2023-06-22T07:17:42;101468.25;;;27.03;50.49
10064;BME280;5071;52.360;13.134;2023-06-22T07:22:45;101473.03;;;26.87;50.82
10064;BME280;5071;52.360;13.134;2023-06-22T07:27:57;101466.50;;;27.53;49.69
10064;BME280;5071;52.360;13.134;2023-06-22T07:33:02;101462.25;;;26.58;50.59
10064;BME280;5071;52.360;13.134;2023-06-22T07:38:04;101469.44;;;26.05;53.60
10064;BME280;5071;52.360;13.134;2023-06-22T07:43:07;101477.72;;;26.03;54.57
10064;BME280;5071;52.360;13.134;2023-06-22T07:48:11;101475.97;;;26.02;54.41
10064;BME280;5071;52.360;13.134;2023-06-22T07:53:13;101480.56;;;26.02;54.45
10064;BME280;5071;52.360;13.134;2023-06-22T07:58:16;101477.69;;;26.45;53.90
10064;BME280;5071;52.360;13.134;2023-06-22T08:03:19;101470.59;;;26.69;52.99
10064;BME280;5071;52.360;13.134;2023-06-22T08:08:22;101466.88;;;26.70;52.37
10064;BME280;5071;52.360;13.134;2023-06-22T08:13:24;101464.59;;;26.64;52.29
10064;BME280;5071;52.360;13.134;2023-06-22T08:18:28;101459.75;;;27.21;51.28
10064;BME280;5071;52.360;13.134;2023-06-22T08:23:30;101465.81;;;27.63;50.02
10064;BME280;5071;52.360;13.134;2023-06-22T08:28:32;101472.81;;;27.15;51.60
10064;BME280;5071;52.360;13.134;2023-06-22T08:33:35;101468.97;;;26.80;50.70
10064;BME280;5071;52.360;13.134;2023-06-22T08:38:50;101462.81;;;27.29;48.79
10064;BME280;5071;52.360;13.134;2023-06-22T08:43:53;101468.03;;;27.58;48.88
10064;BME280;5071;52.360;13.134;2023-06-22T08:48:56;101471.91;;;28.53;46.19
10064;BME280;5071;52.360;13.134;2023-06-22T08:53:59;101470.78;;;28.56;43.97
10064;BME280;5071;52.360;13.134;2023-06-22T08:59:01;101475.50;;;28.89;43.96
10064;BME280;5071;52.360;13.134;2023-06-22T09:04:05;101468.50;;;28.01;46.73
10064;BME280;5071;52.360;13.134;2023-06-22T09:09:08;101473.66;;;27.80;46.69
10064;BME280;5071;52.360;13.134;2023-06-22T09:14:10;101462.44;;;27.72;48.73
10064;BME280;5071;52.360;13.134;2023-06-22T09:19:14;101462.41;;;27.35;47.88
10064;BME280;5071;52.360;13.134;2023-06-22T09:24:17;101460.13;;;27.79;48.19
10064;BME280;5071;52.360;13.134;2023-06-22T09:29:19;101459.69;;;27.72;47.57
10064;BME280;5071;52.360;13.134;2023-06-22T09:34:23;101446.13;;;27.83;48.12
10064;BME280;5071;52.360;13.134;2023-06-22T09:39:25;101452.88;;;28.03;47.11
10064;BME280;5071;52.360;13.134;2023-06-22T09:44:27;101446.34;;;28.41;47.41
10064;BME280;5071;52.360;13.134;2023-06-22T09:49:30;101445.22;;;28.08;47.09
10064;BME280;5071;52.360;13.134;2023-06-22T09:54:48;101432.13;;;27.64;47.47
10064;BME280;5071;52.360;13.134;2023-06-22T09:59:51;101439.56;;;27.62;47.82
10064;BME280;5071;52.360;13.134;2023-06-22T10:04:55;101442.28;;;27.62;49.61
10064;BME280;5071;52.360;13.134;2023-06-22T10:09:58;101436.16;;;27.71;48.70
10064;BME280;5071;52.360;13.134;2023-06-22T10:15:00;101443.56;;;27.69;47.86
10064;BME280;5071;52.360;13.134;2023-06-22T10:20:06;101437.47;;;28.26;46.52
10064;BME280;5071;52.360;13.134;2023-06-22T10:25:10;101439.72;;;31.64;39.57
10064;BME280;5071;52.360;13.134;2023-06-22T10:30:13;101441.50;;;33.30;36.52
10064;BME280;5071;52.360;13.134;2023-06-22T10:35:16;101425.00;;;32.64;36.91
10064;BME280;5071;52.360;13.134;2023-06-22T10:40:19;101424.84;;;32.55;37.77
10064;BME280;5071;52.360;13.134;2023-06-22T10:45:21;101419.88;;;32.01;38.21
10064;BME280;5071;52.360;13.134;2023-06-22T10:50:26;101411.81;;;30.76;40.30
10064;BME280;5071;52.360;13.134;2023-06-22T10:55:27;101400.09;;;31.16;39.44
10064;BME280;5071;52.360;13.134;2023-06-22T11:00:41;101393.31;;;31.20;39.93
10064;BME280;5071;52.360;13.134;2023-06-22T11:05:45;101393.81;;;30.83;40.23
10064;BME280;5071;52.360;13.134;2023-06-22T11:10:47;101383.00;;;30.39;41.71
10064;BME280;5071;52.360;13.134;2023-06-22T11:15:50;101369.69;;;30.77;41.11
10064;BME280;5071;52.360;13.134;2023-06-22T11:20:54;101369.63;;;29.81;41.68
10064;BME280;5071;52.360;13.134;2023-06-22T11:25:56;101369.47;;;30.69;42.27
10064;BME280;5071;52.360;13.134;2023-06-22T11:30:58;101368.09;;;30.53;40.21
10064;BME280;5071;52.360;13.134;2023-06-22T11:36:06;101375.59;;;30.93;39.19
10064;BME280;5071;52.360;13.134;2023-06-22T11:41:09;101378.34;;;31.34;38.62
10064;BME280;5071;52.360;13.134;2023-06-22T11:46:12;101384.72;;;30.83;38.35
10064;BME280;5071;52.360;13.134;2023-06-22T11:51:15;101354.28;;;30.22;40.04
10064;BME280;5071;52.360;13.134;2023-06-22T11:56:17;101361.66;;;30.85;37.45
10064;BME280;5071;52.360;13.134;2023-06-22T12:01:20;101342.19;;;30.88;41.17
10064;BME280;5071;52.360;13.134;2023-06-22T12:06:23;101338.13;;;31.13;37.45
10064;BME280;5071;52.360;13.134;2023-06-22T12:11:26;101348.53;;;31.19;37.25
10064;BME280;5071;52.360;13.134;2023-06-22T12:16:28;101339.00;;;31.14;37.67
10064;BME280;5071;52.360;13.134;2023-06-22T12:21:31;101331.38;;;30.87;38.57
10064;BME280;5071;52.360;13.134;2023-06-22T12:26:34;101321.09;;;30.37;37.56
10064;BME280;5071;52.360;13.134;2023-06-22T12:31:36;101308.63;;;30.44;38.13
10064;BME280;5071;52.360;13.134;2023-06-22T12:36:39;101301.16;;;30.77;37.57
10064;BME280;5071;52.360;13.134;2023-06-22T12:41:42;101300.88;;;30.49;37.43
10064;BME280;5071;52.360;13.134;2023-06-22T12:46:44;101286.63;;;30.55;37.05
10064;BME280;5071;52.360;13.134;2023-06-22T12:51:48;101291.25;;;30.34;39.03
10064;BME280;5071;52.360;13.134;2023-06-22T12:56:50;101277.69;;;30.84;37.22
10064;BME280;5071;52.360;13.134;2023-06-22T13:01:54;101266.63;;;30.34;38.19
10064;BME280;5071;52.360;13.134;2023-06-22T13:06:58;101272.19;;;30.53;38.55
10064;BME280;5071;52.360;13.134;2023-06-22T13:12:03;101273.59;;;30.27;38.70
10064;BME280;5071;52.360;13.134;2023-06-22T13:17:05;101264.44;;;30.58;38.19
10064;BME280;5071;52.360;13.134;2023-06-22T13:22:26;101255.09;;;31.62;36.82
10064;BME280;5071;52.360;13.134;2023-06-22T13:27:29;101237.88;;;30.90;37.59
10064;BME280;5071;52.360;13.134;2023-06-22T13:32:31;101226.66;;;30.93;37.26
10064;BME280;5071;52.360;13.134;2023-06-22T13:37:36;101215.97;;;30.59;37.66
10064;BME280;5071;52.360;13.134;2023-06-22T13:42:38;101207.47;;;30.52;38.57
10064;BME280;5071;52.360;13.134;2023-06-22T13:47:41;101192.03;;;30.92;38.45
10064;BME280;5071;52.360;13.134;2023-06-22T13:52:44;101192.66;;;31.34;36.65
10064;BME280;5071;52.360;13.134;2023-06-22T13:57:46;101190.81;;;30.75;38.11
10064;BME280;5071;52.360;13.134;2023-06-22T14:02:49;101186.84;;;31.08;38.00
10064;BME280;5071;52.360;13.134;2023-06-22T14:07:53;101180.25;;;31.20;37.78
10064;BME280;5071;52.360;13.134;2023-06-22T14:12:55;101182.72;;;31.82;36.33
10064;BME280;5071;52.360;13.134;2023-06-22T14:17:58;101166.09;;;31.45;38.33
10064;BME280;5071;52.360;13.134;2023-06-22T14:23:01;101176.22;;;31.73;35.97
10064;BME280;5071;52.360;13.134;2023-06-22T14:28:04;101150.06;;;30.60;37.92
10064;BME280;5071;52.360;13.134;2023-06-22T14:33:06;101136.34;;;31.20;36.97
10064;BME280;5071;52.360;13.134;2023-06-22T14:38:09;101117.56;;;30.46;38.89
10064;BME280;5071;52.360;13.134;2023-06-22T14:43:11;101110.44;;;30.74;38.01
10064;BME280;5071;52.360;13.134;2023-06-22T14:48:13;101097.28;;;30.58;38.45
10064;BME280;5071;52.360;13.134;2023-06-22T14:53:17;101092.78;;;31.27;38.20
10064;BME280;5071;52.360;13.134;2023-06-22T14:58:19;101083.22;;;31.51;37.23
10064;BME280;5071;52.360;13.134;2023-06-22T15:03:21;101087.41;;;31.35;37.34
10064;BME280;5071;52.360;13.134;2023-06-22T15:08:25;101087.09;;;30.90;38.62
10064;BME280;5071;52.360;13.134;2023-06-22T15:13:29;101067.91;;;30.90;37.97
10064;BME280;5071;52.360;13.134;2023-06-22T15:18:32;101064.75;;;30.94;38.15
10064;BME280;5071;52.360;13.134;2023-06-22T15:23:36;101072.75;;;30.47;38.11
10064;BME280;5071;52.360;13.134;2023-06-22T15:28:39;101055.16;;;30.50;38.84
10064;BME280;5071;52.360;13.134;2023-06-22T15:33:41;101030.34;;;30.51;39.11
10064;BME280;5071;52.360;13.134;2023-06-22T15:38:45;101025.47;;;30.65;38.65
10064;BME280;5071;52.360;13.134;2023-06-22T15:43:47;101036.41;;;30.45;39.82
10064;BME280;5071;52.360;13.134;2023-06-22T15:48:49;101037.44;;;30.64;40.12
10064;BME280;5071;52.360;13.134;2023-06-22T15:53:56;101041.19;;;30.82;38.40
10064;BME280;5071;52.360;13.134;2023-06-22T15:58:59;101019.59;;;31.18;38.41
10064;BME280;5071;52.360;13.134;2023-06-22T16:04:02;100998.06;;;30.74;38.82
10064;BME280;5071;52.360;13.134;2023-06-22T16:09:05;100994.31;;;30.75;38.89
10064;BME280;5071;52.360;13.134;2023-06-22T16:14:07;100989.59;;;30.17;38.67
10064;BME280;5071;52.360;13.134;2023-06-22T16:19:10;100973.69;;;30.52;39.42
10064;BME280;5071;52.360;13.134;2023-06-22T16:24:14;100978.66;;;30.17;39.89
10064;BME280;5071;52.360;13.134;2023-06-22T16:29:16;100947.59;;;30.38;39.04
10064;BME280;5071;52.360;13.134;2023-06-22T16:34:18;100931.38;;;30.15;39.42
10064;BME280;5071;52.360;13.134;2023-06-22T16:39:22;100944.69;;;29.79;40.20
10064;BME280;5071;52.360;13.134;2023-06-22T16:44:25;100930.88;;;29.19;41.76
10064;BME280;5071;52.360;13.134;2023-06-22T16:49:27;100931.59;;;29.21;42.05
10064;BME280;5071;52.360;13.134;2023-06-22T16:54:31;100931.66;;;28.89;41.71
10064;BME280;5071;52.360;13.134;2023-06-22T16:59:35;100924.38;;;29.20;41.90
10064;BME280;5071;52.360;13.134;2023-06-22T17:04:38;100921.38;;;29.02;42.07
10064;BME280;5071;52.360;13.134;2023-06-22T17:09:45;100919.53;;;28.82;42.80
10064;BME280;5071;52.360;13.134;2023-06-22T17:14:48;100924.31;;;28.89;42.43
10064;BME280;5071;52.360;13.134;2023-06-22T17:19:53;100903.81;;;28.53;44.25
10064;BME280;5071;52.360;13.134;2023-06-22T17:24:57;100885.84;;;28.60;43.41
10064;BME280;5071;52.360;13.134;2023-06-22T17:30:05;100901.53;;;28.47;43.33
10064;BME280;5071;52.360;13.134;2023-06-22T17:35:10;100880.53;;;28.26;43.93
10064;BME280;5071;52.360;13.134;2023-06-22T17:40:16;100866.81;;;28.17;45.19
10064;BME280;5071;52.360;13.134;2023-06-22T17:45:19;100843.53;;;28.01;45.55
10064;BME280;5071;52.360;13.134;2023-06-22T17:50:22;100824.69;;;27.87;46.33
10064;BME280;5071;52.360;13.134;2023-06-22T17:55:26;100814.84;;;27.75;46.16
10064;BME280;5071;52.360;13.134;2023-06-22T18:00:29;100805.50;;;27.77;46.10
10064;BME280;5071;52.360;13.134;2023-06-22T18:05:32;100817.31;;;27.66;46.08
10064;BME280;5071;52.360;13.134;2023-06-22T18:10:38;100809.69;;;27.49;46.08
10064;BME280;5071;52.360;13.134;2023-06-22T18:15:41;100812.53;;;27.47;46.60
10064;BME280;5071;52.360;13.134;2023-06-22T18:20:45;100806.13;;;27.37;46.21
10064;BME280;5071;52.360;13.134;2023-06-22T18:25:49;100821.00;;;27.33;46.67
10064;BME280;5071;52.360;13.134;2023-06-22T18:30:51;100832.72;;;27.22;47.25
10064;BME280;5071;52.360;13.134;2023-06-22T18:35:55;100817.25;;;27.11;47.60
10064;BME280;5071;52.360;13.134;2023-06-22T18:40:59;100785.56;;;26.99;47.16
10064;BME280;5071;52.360;13.134;2023-06-22T18:46:31;100768.72;;;26.94;48.07
10064;BME280;5071;52.360;13.134;2023-06-22T18:51:48;100738.63;;;26.84;47.85
10064;BME280;5071;52.360;13.134;2023-06-22T18:56:56;100744.19;;;26.71;48.21
10064;BME280;5071;52.360;13.134;2023-06-22T19:02:00;100752.34;;;26.60;48.41
10064;BME280;5071;52.360;13.134;2023-06-22T19:07:02;100762.94;;;26.52;48.35
10064;BME280;5071;52.360;13.134;2023-06-22T19:12:24;100752.31;;;26.49;48.69
10064;BME280;5071;52.360;13.134;2023-06-22T19:17:26;100747.47;;;26.41;48.52
10064;BME280;5071;52.360;13.134;2023-06-22T19:22:43;100747.47;;;26.30;49.12
10064;BME280;5071;52.360;13.134;2023-06-22T19:27:48;100751.91;;;26.31;48.71
10064;BME280;5071;52.360;13.134;2023-06-22T19:32:50;100733.09;;;26.28;48.69
10064;BME280;5071;52.360;13.134;2023-06-22T19:37:52;100724.53;;;26.21;48.79
10064;BME280;5071;52.360;13.134;2023-06-22T19:42:56;100702.47;;;25.66;52.88
10064;BME280;5071;52.360;13.134;2023-06-22T19:47:58;100708.75;;;24.81;57.09
10064;BME280;5071;52.360;13.134;2023-06-22T19:53:00;100703.50;;;23.89;62.53
10064;BME280;5071;52.360;13.134;2023-06-22T19:58:04;100706.28;;;23.47;65.60
10064;BME280;5071;52.360;13.134;2023-06-22T20:03:08;100745.84;;;23.08;74.35
10064;BME280;5071;52.360;13.134;2023-06-22T20:08:11;100965.81;;;22.67;75.08
10064;BME280;5071;52.360;13.134;2023-06-22T20:13:18;101015.31;;;21.56;88.87
10064;BME280;5071;52.360;13.134;2023-06-22T20:18:22;101062.44;;;20.24;100.00
10064;BME280;5071;52.360;13.134;2023-06-22T20:23:24;100938.97;;;19.94;100.00
10064;BME280;5071;52.360;13.134;2023-06-22T20:28:27;100885.31;;;19.70;100.00
10064;BME280;5071;52.360;13.134;2023-06-22T20:33:30;100846.06;;;19.65;100.00
10064;BME280;5071;52.360;13.134;2023-06-22T20:38:33;100812.16;;;19.60;100.00
10064;BME280;5071;52.360;13.134;2023-06-22T20:43:36;100861.50;;;19.61;100.00
10064;BME280;5071;52.360;13.134;2023-06-22T20:48:38;100827.09;;;19.49;100.00
10064;BME280;5071;52.360;13.134;2023-06-22T20:53:41;100795.56;;;19.33;100.00
10064;BME280;5071;52.360;13.134;2023-06-22T20:58:44;100783.31;;;19.26;100.00
10064;BME280;5071;52.360;13.134;2023-06-22T21:03:46;100764.63;;;19.23;100.00
10064;BME280;5071;52.360;13.134;2023-06-22T21:08:48;100777.28;;;19.21;100.00
10064;BME280;5071;52.360;13.134;2023-06-22T21:13:52;100783.97;;;19.12;100.00
10064;BME280;5071;52.360;13.134;2023-06-22T21:18:55;100852.22;;;19.30;100.00
10064;BME280;5071;52.360;13.134;2023-06-22T21:23:57;100975.28;;;19.27;100.00
10064;BME280;5071;52.360;13.134;2023-06-22T21:29:01;101175.63;;;19.41;100.00
10064;BME280;5071;52.360;13.134;2023-06-22T21:34:03;101258.13;;;19.42;100.00
10064;BME280;5071;52.360;13.134;2023-06-22T21:39:05;101183.81;;;19.38;100.00
10064;BME280;5071;52.360;13.134;2023-06-22T21:44:09;101097.66;;;19.18;100.00
10064;BME280;5071;52.360;13.134;2023-06-22T21:49:11;101036.84;;;19.14;100.00
10064;BME280;5071;52.360;13.134;2023-06-22T21:54:14;100922.44;;;19.05;100.00
10064;BME280;5071;52.360;13.134;2023-06-22T21:59:18;100851.00;;;18.98;100.00
10064;BME280;5071;52.360;13.134;2023-06-22T22:04:20;100874.75;;;18.88;100.00
10064;BME280;5071;52.360;13.134;2023-06-22T22:09:22;100858.75;;;18.85;100.00
10064;BME280;5071;52.360;13.134;2023-06-22T22:14:26;100849.25;;;18.76;100.00
10064;BME280;5071;52.360;13.134;2023-06-22T22:19:28;100871.78;;;18.74;100.00
10064;BME280;5071;52.360;13.134;2023-06-22T22:24:30;100868.13;;;18.75;100.00
10064;BME280;5071;52.360;13.134;2023-06-22T22:29:34;100855.44;;;18.78;100.00
10064;BME280;5071;52.360;13.134;2023-06-22T22:34:36;100840.38;;;18.74;100.00
10064;BME280;5071;52.360;13.134;2023-06-22T22:39:39;100849.31;;;18.75;100.00
10064;BME280;5071;52.360;13.134;2023-06-22T22:44:42;100825.34;;;18.70;100.00
10064;BME280;5071;52.360;13.134;2023-06-22T22:49:44;100799.31;;;18.71;100.00
10064;BME280;5071;52.360;13.134;2023-06-22T22:54:47;100781.69;;;18.63;100.00
10064;BME280;5071;52.360;13.134;2023-06-22T22:59:50;100780.53;;;18.69;100.00
10064;BME280;5071;52.360;13.134;2023-06-22T23:04:55;100769.34;;;18.59;100.00
10064;BME280;5071;52.360;13.134;2023-06-22T23:09:58;100762.38;;;18.55;100.00
10064;BME280;5071;52.360;13.134;2023-06-22T23:15:01;100702.50;;;18.52;100.00
10064;BME280;5071;52.360;13.134;2023-06-22T23:20:05;100671.47;;;18.44;100.00
10064;BME280;5071;52.360;13.134;2023-06-22T23:25:08;100673.41;;;18.41;100.00
10064;BME280;5071;52.360;13.134;2023-06-22T23:30:12;100693.44;;;18.34;100.00
10064;BME280;5071;52.360;13.134;2023-06-22T23:35:15;100721.69;;;18.23;100.00
10064;BME280;5071;52.360;13.134;2023-06-22T23:40:18;100737.00;;;18.21;100.00
10064;BME280;5071;52.360;13.134;2023-06-22T23:45:22;100739.75;;;18.20;100.00
10064;BME280;5071;52.360;13.134;2023-06-22T23:50:23;100754.38;;;18.13;100.00
10064;BME280;5071;52.360;13.134;2023-06-22T23:55:26;100762.50;;;18.11;100.00
